createdAt,value
2018-07-07T00:01:21.188Z,16.70
2018-07-07T00:03:24.784Z,17.70
2018-07-07T00:05:28.307Z,17.53
2018-07-07T00:07:32.184Z,16.93
2018-07-07T00:09:35.767Z,15.83
2018-07-07T00:11:39.632Z,16.07
2018-07-07T00:13:43.210Z,17.27
2018-07-07T00:15:46.770Z,16.33
2018-07-07T00:17:51.172Z,16.40
2018-07-07T00:19:55.373Z,16.47
2018-07-07T00:22:06.225Z,18.13
2018-07-07T00:24:09.804Z,16.60
2018-07-07T00:26:13.389Z,17.03
2018-07-07T00:28:16.982Z,16.83
2018-07-07T00:30:20.617Z,16.27
2018-07-07T00:32:24.484Z,15.00
2018-07-07T00:34:28.050Z,15.97
2018-07-07T00:36:31.656Z,16.53
2018-07-07T00:38:35.217Z,16.90
2018-07-07T00:40:38.800Z,17.67
2018-07-07T00:42:42.715Z,17.03
2018-07-07T00:44:46.213Z,17.10
2018-07-07T00:46:50.228Z,16.93
2018-07-07T00:48:53.714Z,17.03
2018-07-07T00:50:57.306Z,17.57
2018-07-07T00:53:00.844Z,18.23
2018-07-07T00:55:05.430Z,16.63
2018-07-07T00:57:09.291Z,16.80
2018-07-07T00:59:12.790Z,16.77
2018-07-07T01:01:16.397Z,17.47
2018-07-07T01:03:20.500Z,17.30
2018-07-07T01:05:35.873Z,17.43
2018-07-07T01:07:39.385Z,17.27
2018-07-07T01:09:42.883Z,18.43
2018-07-07T01:11:46.492Z,17.03
2018-07-07T01:13:50.038Z,16.83
2018-07-07T01:15:53.563Z,17.70
2018-07-07T01:17:57.222Z,18.27
2018-07-07T01:20:00.839Z,16.83
2018-07-07T01:22:05.731Z,18.60
2018-07-07T01:24:09.299Z,17.77
2018-07-07T01:26:12.871Z,17.73
2018-07-07T01:28:16.406Z,17.00
2018-07-07T01:30:19.964Z,16.53
2018-07-07T01:32:23.500Z,16.57
2018-07-07T01:34:27.066Z,16.67
2018-07-07T01:36:30.580Z,16.63
2018-07-07T01:38:34.160Z,14.97
2018-07-07T01:40:38.073Z,16.07
2018-07-07T01:42:41.590Z,15.97
2018-07-07T01:44:45.173Z,16.43
2018-07-07T01:46:49.434Z,16.30
2018-07-07T01:48:53.706Z,14.83
2018-07-07T01:50:57.269Z,13.97
2018-07-07T01:53:00.785Z,14.57
2018-07-07T01:55:04.808Z,15.03
2018-07-07T01:57:08.328Z,15.03
2018-07-07T01:59:12.248Z,15.30
2018-07-07T02:01:16.199Z,14.20
2018-07-07T02:03:20.181Z,13.37
2018-07-07T02:05:23.719Z,14.53
2018-07-07T02:07:27.279Z,14.57
2018-07-07T02:09:30.880Z,14.70
2018-07-07T02:11:34.505Z,14.60
2018-07-07T02:13:38.138Z,15.23
2018-07-07T02:15:41.865Z,15.20
2018-07-07T02:17:45.459Z,14.57
2018-07-07T02:19:48.991Z,15.83
2018-07-07T02:21:52.529Z,15.03
2018-07-07T02:23:56.153Z,15.27
2018-07-07T02:26:00.098Z,15.80
2018-07-07T02:28:03.992Z,16.57
2018-07-07T02:30:07.561Z,16.60
2018-07-07T02:32:11.100Z,16.40
2018-07-07T02:34:14.661Z,16.10
2018-07-07T02:36:18.152Z,15.63
2018-07-07T02:38:21.662Z,15.77
2018-07-07T02:40:25.155Z,15.90
2018-07-07T02:42:28.708Z,16.27
2018-07-07T02:44:32.315Z,16.97
2018-07-07T02:46:35.843Z,16.13
2018-07-07T02:48:39.396Z,16.07
2018-07-07T02:50:42.923Z,16.73
2018-07-07T02:52:46.527Z,16.13
2018-07-07T02:54:50.037Z,16.20
2018-07-07T02:56:53.594Z,15.77
2018-07-07T02:58:57.205Z,16.40
2018-07-07T03:01:00.756Z,16.27
2018-07-07T03:03:04.659Z,15.40
2018-07-07T03:05:08.247Z,15.20
2018-07-07T03:07:11.875Z,16.10
2018-07-07T03:09:15.463Z,15.43
2018-07-07T03:11:19.079Z,15.60
2018-07-07T03:13:22.640Z,16.07
2018-07-07T03:15:29.616Z,16.67
2018-07-07T03:17:33.589Z,16.03
2018-07-07T03:19:37.184Z,15.80
2018-07-07T03:21:40.836Z,16.60
2018-07-07T03:23:44.521Z,16.20
2018-07-07T03:25:48.045Z,16.40
2018-07-07T03:27:51.982Z,17.23
2018-07-07T03:29:55.484Z,17.00
2018-07-07T03:31:59.048Z,15.70
2018-07-07T03:34:02.609Z,17.13
2018-07-07T03:36:12.810Z,18.30
2018-07-07T03:38:16.379Z,17.87
2018-07-07T03:40:19.947Z,17.83
2018-07-07T03:42:23.534Z,17.53
2018-07-07T03:44:27.117Z,18.13
2018-07-07T03:46:30.784Z,17.10
2018-07-07T03:48:34.461Z,17.10
2018-07-07T03:50:38.044Z,17.70
2018-07-07T03:52:41.618Z,18.27
2018-07-07T03:54:45.157Z,17.20
2018-07-07T03:56:48.668Z,17.03
2018-07-07T03:58:52.419Z,17.97
2018-07-07T04:00:56.171Z,17.90
2018-07-07T04:02:59.821Z,18.10
2018-07-07T04:05:03.386Z,18.17
2018-07-07T04:07:07.443Z,16.77
2018-07-07T04:09:10.976Z,16.93
2018-07-07T04:11:14.527Z,16.73
2018-07-07T04:13:18.055Z,16.63
2018-07-07T04:15:21.708Z,17.03
2018-07-07T04:17:25.261Z,17.03
2018-07-07T04:19:29.163Z,16.77
2018-07-07T04:21:32.709Z,15.80
2018-07-07T04:23:36.236Z,15.73
2018-07-07T04:25:39.772Z,16.30
2018-07-07T04:27:43.333Z,16.40
2018-07-07T04:29:46.926Z,16.17
2018-07-07T04:31:50.525Z,15.53
2018-07-07T04:33:54.102Z,15.87
2018-07-07T04:35:57.995Z,16.23
2018-07-07T04:38:01.550Z,15.10
2018-07-07T04:40:05.393Z,15.47
2018-07-07T04:42:09.519Z,15.13
2018-07-07T04:44:15.328Z,16.07
2018-07-07T04:46:18.897Z,14.63
2018-07-07T04:48:22.461Z,15.40
2018-07-07T04:50:26.029Z,14.60
2018-07-07T04:52:29.622Z,14.23
2018-07-07T04:54:33.373Z,15.57
2018-07-07T04:56:36.916Z,14.93
2018-07-07T04:58:40.459Z,13.97
2018-07-07T05:00:44.011Z,14.40
2018-07-07T05:02:47.619Z,15.03
2018-07-07T05:04:51.169Z,14.07
2018-07-07T05:06:54.733Z,14.77
2018-07-07T05:08:58.375Z,14.27
2018-07-07T05:11:02.366Z,14.33
2018-07-07T05:13:05.942Z,14.67
2018-07-07T05:15:10.426Z,14.30
2018-07-07T05:17:14.357Z,14.27
2018-07-07T05:19:18.430Z,13.77
2018-07-07T05:21:21.999Z,13.50
2018-07-07T05:23:25.540Z,13.20
2018-07-07T05:25:29.155Z,14.23
2018-07-07T05:27:32.802Z,13.23
2018-07-07T05:29:36.321Z,12.87
2018-07-07T05:31:39.923Z,13.87
2018-07-07T05:33:43.663Z,12.30
2018-07-07T05:35:47.587Z,13.10
2018-07-07T05:37:51.289Z,14.43
2018-07-07T05:39:54.880Z,12.27
2018-07-07T05:41:58.456Z,13.20
2018-07-07T05:44:01.987Z,14.00
2018-07-07T05:46:05.631Z,13.43
2018-07-07T05:48:09.211Z,13.50
2018-07-07T05:50:13.196Z,12.33
2018-07-07T05:52:16.777Z,12.97
2018-07-07T05:54:20.326Z,11.60
2018-07-07T05:56:23.892Z,11.30
2018-07-07T05:58:27.426Z,12.17
2018-07-07T06:00:31.010Z,11.70
2018-07-07T06:02:34.577Z,11.70
2018-07-07T06:04:38.104Z,11.40
2018-07-07T06:06:41.729Z,11.20
2018-07-07T06:08:45.344Z,11.07
2018-07-07T06:10:49.248Z,10.93
2018-07-07T06:12:52.845Z,11.57
2018-07-07T06:14:56.379Z,10.83
2018-07-07T06:16:59.957Z,11.30
2018-07-07T06:19:03.864Z,11.73
2018-07-07T06:21:07.811Z,11.43
2018-07-07T06:23:11.386Z,11.00
2018-07-07T06:25:14.925Z,11.77
2018-07-07T06:27:18.880Z,10.70
2018-07-07T06:29:22.409Z,11.20
2018-07-07T06:31:25.997Z,10.27
2018-07-07T06:33:29.558Z,10.93
2018-07-07T06:35:33.563Z,10.80
2018-07-07T06:37:37.108Z,10.97
2018-07-07T06:39:40.732Z,11.13
2018-07-07T06:41:44.286Z,10.33
2018-07-07T06:43:47.873Z,10.50
2018-07-07T06:45:51.653Z,11.57
2018-07-07T06:47:55.232Z,10.37
2018-07-07T06:49:58.813Z,10.70
2018-07-07T06:52:02.329Z,10.90
2018-07-07T06:54:06.010Z,10.40
2018-07-07T06:56:09.666Z,10.87
2018-07-07T06:58:13.239Z,11.13
2018-07-07T07:00:16.810Z,10.77
2018-07-07T07:02:20.358Z,10.40
2018-07-07T07:04:23.927Z,10.57
2018-07-07T07:06:27.562Z,10.03
2018-07-07T07:08:31.095Z,10.07
2018-07-07T07:10:34.609Z,11.30
2018-07-07T07:12:38.179Z,11.47
2018-07-07T07:14:41.741Z,10.07
2018-07-07T07:16:45.234Z,10.07
2018-07-07T07:18:48.828Z,10.87
2018-07-07T07:20:52.363Z,10.70
2018-07-07T07:22:56.777Z,10.60
2018-07-07T07:25:00.329Z,10.50
2018-07-07T07:27:04.244Z,10.13
2018-07-07T07:29:07.769Z,11.30
2018-07-07T07:31:11.351Z,10.80
2018-07-07T07:33:14.872Z,10.73
2018-07-07T07:35:18.513Z,11.30
2018-07-07T07:37:22.043Z,11.70
2018-07-07T07:39:25.675Z,11.27
2018-07-07T07:41:29.191Z,11.17
2018-07-07T07:43:33.092Z,11.10
2018-07-07T07:45:36.724Z,10.80
2018-07-07T07:47:40.303Z,10.80
2018-07-07T07:49:43.887Z,11.40
2018-07-07T07:51:47.421Z,12.07
2018-07-07T07:53:51.031Z,11.73
2018-07-07T07:55:54.609Z,11.07
2018-07-07T07:57:58.226Z,12.17
2018-07-07T08:00:01.785Z,11.03
2018-07-07T08:02:05.691Z,11.10
2018-07-07T08:04:09.560Z,10.60
2018-07-07T08:06:13.111Z,10.53
2018-07-07T08:08:16.719Z,11.07
2018-07-07T08:10:20.440Z,10.63
2018-07-07T08:12:24.080Z,10.80
2018-07-07T08:14:28.048Z,11.30
2018-07-07T08:16:31.592Z,11.10
2018-07-07T08:18:35.519Z,11.63
2018-07-07T08:20:39.072Z,11.80
2018-07-07T08:22:42.663Z,11.70
2018-07-07T08:24:46.864Z,11.87
2018-07-07T08:26:50.915Z,10.93
2018-07-07T08:28:54.431Z,12.17
2018-07-07T08:30:58.017Z,12.33
2018-07-07T08:33:01.550Z,12.40
2018-07-07T08:35:05.080Z,13.47
2018-07-07T08:37:08.692Z,12.10
2018-07-07T08:39:12.316Z,10.87
2018-07-07T08:41:16.015Z,11.00
2018-07-07T08:43:20.458Z,10.93
2018-07-07T08:45:23.953Z,11.93
2018-07-07T08:47:34.008Z,9.90
2018-07-07T08:49:37.575Z,9.83
2018-07-07T08:51:41.139Z,9.90
2018-07-07T08:53:44.699Z,9.03
2018-07-07T08:55:48.266Z,8.60
2018-07-07T08:57:51.810Z,10.37
2018-07-07T08:59:55.340Z,8.90
2018-07-07T09:01:58.839Z,8.63
2018-07-07T09:04:03.098Z,7.90
2018-07-07T09:06:06.929Z,8.97
2018-07-07T09:08:10.485Z,8.37
2018-07-07T09:10:14.358Z,7.53
2018-07-07T09:12:17.957Z,7.23
2018-07-07T09:14:21.511Z,7.30
2018-07-07T09:16:25.620Z,8.10
2018-07-07T09:18:29.231Z,8.40
2018-07-07T09:20:33.028Z,8.80
2018-07-07T09:22:36.961Z,7.67
2018-07-07T09:24:40.498Z,7.47
2018-07-07T09:26:44.058Z,7.57
2018-07-07T09:28:47.653Z,8.07
2018-07-07T09:30:51.279Z,7.87
2018-07-07T09:32:55.012Z,7.50
2018-07-07T09:34:58.753Z,8.87
2018-07-07T09:37:02.286Z,8.47
2018-07-07T09:39:07.892Z,8.07
2018-07-07T09:41:11.444Z,8.63
2018-07-07T09:43:14.988Z,8.27
2018-07-07T09:45:18.538Z,9.50
2018-07-07T09:47:22.129Z,8.43
2018-07-07T09:49:25.712Z,9.50
2018-07-07T09:51:29.906Z,9.63
2018-07-07T09:53:33.483Z,10.10
2018-07-07T09:55:37.020Z,10.90
2018-07-07T09:57:40.562Z,10.67
2018-07-07T09:59:44.547Z,9.90
2018-07-07T10:01:48.135Z,9.07
2018-07-07T10:03:51.825Z,9.27
2018-07-07T10:05:55.380Z,8.67
2018-07-07T10:07:58.954Z,8.63
2018-07-07T10:10:02.516Z,8.97
2018-07-07T10:12:06.037Z,8.20
2018-07-07T10:14:09.608Z,9.07
2018-07-07T10:16:13.230Z,8.27
2018-07-07T10:18:16.820Z,9.07
2018-07-07T10:20:20.367Z,10.33
2018-07-07T10:22:23.960Z,10.10
2018-07-07T10:24:27.616Z,9.50
2018-07-07T10:26:31.157Z,7.50
2018-07-07T10:28:34.666Z,7.63
2018-07-07T10:30:38.634Z,9.03
2018-07-07T10:32:42.422Z,8.70
2018-07-07T10:34:46.038Z,8.27
2018-07-07T10:36:49.610Z,8.37
2018-07-07T10:38:53.621Z,8.73
2018-07-07T10:40:57.177Z,8.53
2018-07-07T10:43:00.667Z,8.47
2018-07-07T10:45:04.306Z,8.93
2018-07-07T10:47:07.895Z,7.60
2018-07-07T10:49:11.503Z,7.30
2018-07-07T10:51:15.035Z,7.83
2018-07-07T10:53:18.574Z,8.10
2018-07-07T10:55:22.265Z,7.80
2018-07-07T10:57:26.031Z,7.83
2018-07-07T10:59:29.547Z,7.73
2018-07-07T11:01:33.088Z,7.50
2018-07-07T11:03:36.695Z,6.87
2018-07-07T11:05:40.250Z,7.10
2018-07-07T11:07:43.818Z,7.93
2018-07-07T11:09:47.311Z,7.93
2018-07-07T11:11:50.984Z,8.83
2018-07-07T11:13:54.732Z,9.47
2018-07-07T11:15:58.259Z,8.67
2018-07-07T11:18:02.644Z,8.77
2018-07-07T11:20:06.749Z,9.50
2018-07-07T11:22:10.521Z,9.67
2018-07-07T11:24:14.315Z,8.93
2018-07-07T11:26:17.868Z,8.60
2018-07-07T11:28:21.620Z,8.50
2018-07-07T11:30:25.216Z,8.10
2018-07-07T11:32:28.763Z,9.83
2018-07-07T11:34:32.290Z,9.50
2018-07-07T11:36:35.910Z,9.53
2018-07-07T11:38:39.630Z,8.23
2018-07-07T11:40:43.244Z,8.07
2018-07-07T11:42:46.895Z,8.13
2018-07-07T11:44:50.382Z,8.70
2018-07-07T11:46:54.437Z,7.63
2018-07-07T11:48:58.468Z,7.97
2018-07-07T11:51:02.054Z,8.60
2018-07-07T11:53:05.728Z,7.87
2018-07-07T11:55:09.632Z,8.07
2018-07-07T11:57:13.222Z,8.13
2018-07-07T11:59:16.940Z,8.03
2018-07-07T12:01:20.491Z,9.93
2018-07-07T12:03:24.041Z,8.13
2018-07-07T12:05:27.586Z,8.53
2018-07-07T12:07:31.215Z,7.53
2018-07-07T12:09:34.794Z,8.30
2018-07-07T12:11:38.411Z,8.23
2018-07-07T12:13:42.595Z,8.60
2018-07-07T12:15:46.264Z,9.20
2018-07-07T12:17:49.855Z,8.03
2018-07-07T12:19:53.699Z,7.57
2018-07-07T12:21:57.326Z,8.03
2018-07-07T12:24:01.284Z,8.23
2018-07-07T12:26:05.128Z,7.73
2018-07-07T12:28:08.702Z,7.80
2018-07-07T12:30:12.344Z,8.60
2018-07-07T12:32:15.906Z,8.23
2018-07-07T12:34:19.462Z,7.47
2018-07-07T12:36:23.091Z,8.03
2018-07-07T12:38:26.680Z,7.37
2018-07-07T12:40:30.573Z,8.17
2018-07-07T12:42:34.335Z,9.03
2018-07-07T12:44:38.340Z,7.67
2018-07-07T12:46:42.062Z,8.03
2018-07-07T12:48:46.011Z,7.60
2018-07-07T12:50:49.707Z,7.87
2018-07-07T12:52:53.662Z,7.40
2018-07-07T12:54:57.258Z,7.43
2018-07-07T12:57:00.880Z,7.50
2018-07-07T12:59:04.550Z,7.13
2018-07-07T13:01:08.078Z,7.60
2018-07-07T13:03:11.777Z,7.53
2018-07-07T13:05:15.771Z,8.00
2018-07-07T13:07:19.757Z,8.53
2018-07-07T13:09:23.286Z,8.03
2018-07-07T13:11:26.849Z,7.57
2018-07-07T13:13:30.414Z,7.97
2018-07-07T13:15:34.000Z,7.20
2018-07-07T13:17:37.651Z,7.10
2018-07-07T13:19:41.215Z,7.10
2018-07-07T13:21:45.171Z,6.97
2018-07-07T13:23:49.099Z,6.53
2018-07-07T13:25:52.701Z,7.87
2018-07-07T13:27:56.258Z,7.57
2018-07-07T13:29:59.828Z,7.37
2018-07-07T13:32:03.432Z,7.50
2018-07-07T13:34:07.410Z,7.40
2018-07-07T13:36:10.996Z,6.67
2018-07-07T13:38:14.585Z,6.37
2018-07-07T13:40:18.151Z,6.07
2018-07-07T13:42:21.734Z,6.63
2018-07-07T13:44:25.288Z,5.90
2018-07-07T13:46:28.912Z,6.50
2018-07-07T13:48:32.669Z,6.77
2018-07-07T13:50:36.855Z,7.10
2018-07-07T13:52:40.429Z,6.13
2018-07-07T13:54:44.019Z,6.47
2018-07-07T13:56:47.951Z,5.93
2018-07-07T13:58:51.627Z,5.77
2018-07-07T14:00:55.751Z,6.37
2018-07-07T14:02:59.358Z,5.93
2018-07-07T14:05:02.967Z,5.80
2018-07-07T14:07:06.870Z,6.50
2018-07-07T14:09:11.097Z,6.87
2018-07-07T14:11:14.616Z,6.13
2018-07-07T14:13:18.185Z,6.33
2018-07-07T14:15:21.717Z,5.37
2018-07-07T14:17:25.286Z,5.17
2018-07-07T14:19:29.071Z,5.37
2018-07-07T14:21:32.719Z,4.83
2018-07-07T14:23:36.374Z,4.80
2018-07-07T14:25:40.382Z,4.57
2018-07-07T14:27:43.946Z,4.63
2018-07-07T14:29:47.520Z,4.67
2018-07-07T14:31:51.344Z,4.47
2018-07-07T14:33:55.087Z,4.73
2018-07-07T14:35:58.669Z,4.63
2018-07-07T14:38:02.276Z,4.80
2018-07-07T14:40:05.909Z,4.83
2018-07-07T14:42:19.104Z,4.50
2018-07-07T14:44:22.603Z,4.70
2018-07-07T14:46:26.799Z,5.20
2018-07-07T14:48:30.307Z,4.87
2018-07-07T14:50:33.927Z,4.77
2018-07-07T14:52:37.479Z,4.63
2018-07-07T14:54:41.066Z,4.57
2018-07-07T14:56:44.650Z,5.10
2018-07-07T14:58:48.608Z,4.60
2018-07-07T15:00:52.535Z,4.63
2018-07-07T15:02:57.436Z,5.33
2018-07-07T15:05:01.402Z,4.87
2018-07-07T15:07:04.986Z,4.53
2018-07-07T15:09:08.585Z,4.43
2018-07-07T15:11:12.399Z,4.93
2018-07-07T15:13:16.315Z,4.50
2018-07-07T15:15:20.290Z,4.77
2018-07-07T15:17:23.847Z,4.67
2018-07-07T15:19:27.507Z,4.80
2018-07-07T15:21:31.104Z,5.00
2018-07-07T15:23:34.643Z,4.60
2018-07-07T15:25:38.271Z,4.70
2018-07-07T15:27:41.849Z,4.67
2018-07-07T15:29:45.385Z,4.47
2018-07-07T15:31:48.978Z,4.57
2018-07-07T15:33:52.618Z,4.47
2018-07-07T15:35:56.649Z,4.80
2018-07-07T15:38:00.573Z,4.17
2018-07-07T15:40:04.561Z,4.30
2018-07-07T15:42:08.726Z,4.90
2018-07-07T15:44:12.341Z,4.43
2018-07-07T15:46:15.945Z,4.83
2018-07-07T15:48:19.464Z,4.70
2018-07-07T15:50:23.462Z,5.23
2018-07-07T15:52:27.467Z,4.90
2018-07-07T15:54:31.007Z,4.80
2018-07-07T15:56:34.580Z,4.67
2018-07-07T15:58:38.201Z,4.90
2018-07-07T16:00:42.140Z,4.87
2018-07-07T16:02:45.860Z,4.90
2018-07-07T16:04:49.579Z,4.50
2018-07-07T16:06:53.123Z,5.20
2018-07-07T16:08:56.734Z,4.50
2018-07-07T16:11:00.264Z,4.90
2018-07-07T16:13:03.856Z,5.13
2018-07-07T16:15:07.826Z,5.10
2018-07-07T16:17:11.373Z,4.50
2018-07-07T16:19:14.974Z,4.40
2018-07-07T16:21:18.865Z,4.57
2018-07-07T16:23:22.462Z,4.70
2018-07-07T16:25:26.017Z,4.50
2018-07-07T16:27:29.619Z,4.97
2018-07-07T16:29:33.179Z,4.13
2018-07-07T16:31:36.743Z,4.73
2018-07-07T16:33:40.383Z,4.77
2018-07-07T16:35:43.986Z,4.60
2018-07-07T16:37:47.605Z,5.07
2018-07-07T16:39:51.187Z,5.00
2018-07-07T16:41:56.665Z,4.47
2018-07-07T16:44:00.343Z,4.67
2018-07-07T16:46:03.951Z,4.70
2018-07-07T16:48:07.757Z,4.40
2018-07-07T16:50:12.702Z,4.47
2018-07-07T16:52:16.352Z,4.50
2018-07-07T16:54:20.883Z,4.53
2018-07-07T16:56:24.432Z,4.87
2018-07-07T16:58:28.116Z,4.80
2018-07-07T17:00:32.716Z,5.00
2018-07-07T17:02:36.433Z,5.30
2018-07-07T17:04:40.076Z,4.83
2018-07-07T17:06:43.677Z,4.37
2018-07-07T17:08:47.314Z,5.17
2018-07-07T17:10:50.995Z,4.77
2018-07-07T17:12:54.685Z,4.90
2018-07-07T17:14:58.352Z,4.37
2018-07-07T17:17:02.052Z,4.63
2018-07-07T17:19:06.018Z,4.67
2018-07-07T17:21:10.313Z,5.13
2018-07-07T17:23:13.869Z,4.90
2018-07-07T17:25:17.715Z,5.00
2018-07-07T17:27:21.326Z,4.53
2018-07-07T17:29:25.040Z,5.10
2018-07-07T17:31:28.691Z,4.57
2018-07-07T17:33:32.328Z,4.70
2018-07-07T17:35:36.020Z,4.17
2018-07-07T17:37:39.610Z,4.13
2018-07-07T17:39:43.617Z,3.93
2018-07-07T17:41:47.914Z,3.67
2018-07-07T17:43:51.718Z,3.93
2018-07-07T17:45:55.315Z,3.43
2018-07-07T17:47:59.050Z,3.20
2018-07-07T17:50:03.629Z,3.47
2018-07-07T17:52:07.644Z,3.10
2018-07-07T17:54:11.567Z,3.30
2018-07-07T17:56:16.611Z,3.13
2018-07-07T17:58:20.612Z,3.20
2018-07-07T18:00:24.272Z,3.33
2018-07-07T18:02:27.901Z,3.30
2018-07-07T18:04:31.578Z,3.40
2018-07-07T18:06:35.627Z,3.30
2018-07-07T18:08:39.933Z,3.60
2018-07-07T18:10:43.462Z,3.10
2018-07-07T18:12:47.050Z,3.27
2018-07-07T18:14:50.994Z,3.23
2018-07-07T18:16:54.543Z,3.40
2018-07-07T18:18:58.097Z,3.13
2018-07-07T18:21:02.067Z,2.80
2018-07-07T18:23:05.745Z,2.60
2018-07-07T18:25:09.670Z,2.97
2018-07-07T18:27:13.645Z,2.63
2018-07-07T18:29:17.215Z,2.70
2018-07-07T18:31:20.805Z,2.37
2018-07-07T18:33:24.329Z,2.63
2018-07-07T18:35:28.069Z,2.57
2018-07-07T18:37:31.717Z,2.70
2018-07-07T18:39:35.428Z,2.43
2018-07-07T18:41:39.036Z,2.20
2018-07-07T18:43:43.012Z,2.73
2018-07-07T18:45:46.948Z,2.67
2018-07-07T18:47:50.518Z,2.77
2018-07-07T18:49:54.088Z,2.50
2018-07-07T18:51:57.631Z,2.60
2018-07-07T18:54:01.572Z,3.00
2018-07-07T18:56:05.178Z,2.40
2018-07-07T18:58:08.763Z,2.30
2018-07-07T19:00:12.789Z,2.67
2018-07-07T19:02:16.337Z,2.30
2018-07-07T19:04:19.939Z,2.57
2018-07-07T19:06:23.539Z,2.37
2018-07-07T19:08:27.541Z,2.90
2018-07-07T19:10:31.147Z,2.23
2018-07-07T19:12:34.726Z,2.17
2018-07-07T19:14:38.274Z,2.63
2018-07-07T19:16:41.821Z,2.57
2018-07-07T19:18:45.429Z,1.97
2018-07-07T19:20:54.478Z,2.93
2018-07-07T19:23:03.440Z,2.17
2018-07-07T19:25:12.374Z,2.37
2018-07-07T19:27:15.936Z,2.53
2018-07-07T19:29:20.223Z,2.40
2018-07-07T19:31:24.163Z,2.53
2018-07-07T19:33:32.972Z,2.70
2018-07-07T19:35:41.824Z,2.83
2018-07-07T19:37:45.403Z,2.43
2018-07-07T19:39:49.100Z,2.60
2018-07-07T19:41:52.622Z,2.40
2018-07-07T19:43:56.192Z,2.60
2018-07-07T19:45:59.778Z,2.30
2018-07-07T19:48:03.309Z,2.13
2018-07-07T19:50:07.268Z,2.37
2018-07-07T19:52:11.260Z,2.33
2018-07-07T19:54:15.171Z,1.97
2018-07-07T19:56:18.749Z,2.33
2018-07-07T19:58:22.660Z,2.30
2018-07-07T20:00:26.628Z,2.40
2018-07-07T20:02:30.150Z,2.30
2018-07-07T20:04:33.692Z,2.40
2018-07-07T20:06:37.639Z,2.40
2018-07-07T20:08:41.199Z,2.20
2018-07-07T20:10:44.802Z,2.70
2018-07-07T20:12:48.368Z,2.50
2018-07-07T20:14:51.948Z,2.13
2018-07-07T20:17:01.869Z,2.20
2018-07-07T20:19:17.666Z,2.47
2018-07-07T20:21:37.783Z,2.50
2018-07-07T20:23:41.354Z,2.80
2018-07-07T20:25:50.121Z,3.17
2018-07-07T20:28:56.687Z,3.07
2018-07-07T20:31:00.699Z,3.20
2018-07-07T20:33:04.758Z,3.03
2018-07-07T20:35:08.293Z,2.60
2018-07-07T20:37:11.853Z,2.87
2018-07-07T20:39:15.447Z,2.80
2018-07-07T20:41:19.395Z,3.13
2018-07-07T20:43:23.158Z,3.37
2018-07-07T20:45:27.172Z,3.10
2018-07-07T20:47:31.162Z,2.57
2018-07-07T20:49:34.737Z,2.80
2018-07-07T20:51:38.675Z,2.97
2018-07-07T20:53:42.249Z,3.60
2018-07-07T20:55:45.789Z,2.90
2018-07-07T20:57:49.412Z,3.00
2018-07-07T20:59:53.001Z,3.70
2018-07-07T21:01:56.615Z,3.30
2018-07-07T21:04:00.412Z,2.93
2018-07-07T21:06:04.276Z,3.00
2018-07-07T21:08:07.903Z,2.80
2018-07-07T21:10:11.466Z,3.20
2018-07-07T21:12:15.032Z,3.03
2018-07-07T21:14:18.608Z,2.77
2018-07-07T21:16:22.220Z,3.00
2018-07-07T21:18:25.842Z,3.23
2018-07-07T21:20:29.365Z,2.70
2018-07-07T21:22:32.927Z,3.37
2018-07-07T21:24:36.475Z,3.10
2018-07-07T21:26:40.389Z,3.27
2018-07-07T21:28:43.990Z,3.40
2018-07-07T21:30:47.920Z,3.23
2018-07-07T21:32:51.413Z,2.90
2018-07-07T21:34:55.011Z,3.23
2018-07-07T21:36:58.923Z,3.10
2018-07-07T21:39:02.943Z,2.67
2018-07-07T21:41:07.250Z,3.33
2018-07-07T21:43:10.780Z,3.40
2018-07-07T21:45:14.727Z,3.10
2018-07-07T21:47:18.343Z,3.17
2018-07-07T21:49:21.848Z,2.93
2018-07-07T21:51:25.444Z,2.67
2018-07-07T21:53:29.694Z,3.10
2018-07-07T21:55:34.139Z,2.90
2018-07-07T21:57:43.027Z,2.83
2018-07-07T21:59:46.624Z,2.83
2018-07-07T22:01:56.187Z,2.80
2018-07-07T22:04:04.933Z,3.17
2018-07-07T22:06:09.387Z,2.87
2018-07-07T22:08:20.048Z,3.33
2018-07-07T22:10:23.652Z,2.80
2018-07-07T22:12:29.035Z,2.87
2018-07-07T22:14:32.943Z,2.80
2018-07-07T22:16:36.460Z,3.43
2018-07-07T22:18:40.274Z,3.20
2018-07-07T22:20:53.925Z,4.00
2018-07-07T22:22:57.505Z,3.40
2018-07-07T22:25:01.048Z,3.83
2018-07-07T22:27:07.625Z,3.57
2018-07-07T22:29:11.194Z,3.00
2018-07-07T22:31:15.115Z,3.00
2018-07-07T22:33:24.726Z,2.97
2018-07-07T22:35:33.922Z,2.97
2018-07-07T22:37:37.817Z,3.00
2018-07-07T22:39:43.160Z,3.10
2018-07-07T22:41:55.861Z,3.43
2018-07-07T22:43:59.417Z,3.47
2018-07-07T22:46:02.991Z,2.77
2018-07-07T22:48:06.932Z,2.87
2018-07-07T22:50:10.975Z,2.70
2018-07-07T22:52:14.510Z,3.10
2018-07-07T22:54:18.042Z,3.57
2018-07-07T22:56:21.638Z,3.60
2018-07-07T22:58:25.228Z,3.53
2018-07-07T23:00:33.471Z,3.80
2018-07-07T23:02:37.028Z,3.47
2018-07-07T23:04:40.555Z,3.43
2018-07-07T23:06:45.127Z,3.33
2018-07-07T23:08:49.045Z,3.20
2018-07-07T23:10:52.652Z,3.30
2018-07-07T23:12:56.640Z,3.63
2018-07-07T23:15:00.574Z,4.07
2018-07-07T23:17:04.576Z,3.43
2018-07-07T23:19:08.498Z,3.50
2018-07-07T23:21:12.054Z,3.93
2018-07-07T23:23:15.653Z,3.87
2018-07-07T23:25:19.642Z,3.63
2018-07-07T23:27:23.247Z,3.60
2018-07-07T23:29:26.804Z,3.80
2018-07-07T23:31:30.369Z,3.53
2018-07-07T23:33:33.978Z,3.67
2018-07-07T23:35:37.503Z,3.30
2018-07-07T23:37:41.848Z,3.70
2018-07-07T23:39:45.442Z,3.57
2018-07-07T23:41:49.057Z,3.80
2018-07-07T23:43:53.264Z,3.47
2018-07-07T23:45:56.939Z,3.50
2018-07-07T23:48:00.941Z,4.07
2018-07-07T23:50:04.680Z,3.43
2018-07-07T23:52:08.575Z,4.57
2018-07-07T23:54:12.552Z,3.73
2018-07-07T23:56:16.205Z,3.70
2018-07-07T23:58:20.138Z,3.77
